createdAt,value
2022-08-27T00:01:25.521Z,3.33
2022-08-27T00:03:55.166Z,3.20
2022-08-27T00:06:22.443Z,2.75
2022-08-27T00:08:50.218Z,3.35
2022-08-27T00:11:18.290Z,2.70
2022-08-27T00:13:45.423Z,2.88
2022-08-27T00:16:14.890Z,2.70
2022-08-27T00:18:44.146Z,2.65
2022-08-27T00:21:15.414Z,2.78
2022-08-27T00:23:42.053Z,3.00
2022-08-27T00:26:08.730Z,3.08
2022-08-27T00:28:35.438Z,2.75
2022-08-27T00:31:02.410Z,2.67
2022-08-27T00:33:30.601Z,3.10
2022-08-27T00:35:57.582Z,3.00
2022-08-27T00:38:24.134Z,3.00
2022-08-27T00:40:51.507Z,2.47
2022-08-27T00:43:34.442Z,3.08
2022-08-27T00:46:11.210Z,3.50
2022-08-27T00:51:05.846Z,2.95
2022-08-27T00:53:33.539Z,3.40
2022-08-27T00:56:22.300Z,2.90
2022-08-27T00:58:52.061Z,3.08
2022-08-27T01:01:23.781Z,3.30
2022-08-27T01:03:54.295Z,2.58
2022-08-27T01:06:23.389Z,2.75
2022-08-27T01:08:57.879Z,3.35
2022-08-27T01:11:25.348Z,2.60
2022-08-27T01:14:00.210Z,2.53
2022-08-27T01:16:33.712Z,2.70
2022-08-27T01:19:00.973Z,3.20
2022-08-27T01:22:04.744Z,2.80
2022-08-27T01:24:36.074Z,2.60
2022-08-27T01:27:04.876Z,2.70
2022-08-27T01:29:35.103Z,2.40
2022-08-27T01:32:11.460Z,2.65
2022-08-27T01:34:38.549Z,2.58
2022-08-27T01:37:06.686Z,2.83
2022-08-27T01:39:39.624Z,2.70
2022-08-27T01:42:10.644Z,2.58
2022-08-27T01:44:47.849Z,2.65
2022-08-27T01:47:15.380Z,3.10
2022-08-27T01:49:41.924Z,2.72
2022-08-27T01:52:09.004Z,2.60
2022-08-27T01:54:35.563Z,2.85
2022-08-27T01:57:02.200Z,3.50
2022-08-27T01:59:39.372Z,2.83
2022-08-27T02:02:08.735Z,2.65
2022-08-27T02:04:36.353Z,2.75
2022-08-27T02:07:03.543Z,3.00
2022-08-27T02:09:30.200Z,2.65
2022-08-27T02:11:57.049Z,2.80
2022-08-27T02:14:23.661Z,2.72
2022-08-27T02:16:52.727Z,3.00
2022-08-27T02:19:20.224Z,2.83
2022-08-27T02:21:47.099Z,2.40
2022-08-27T02:24:14.022Z,2.67
2022-08-27T02:26:40.564Z,2.90
2022-08-27T02:29:07.729Z,2.50
2022-08-27T02:31:34.413Z,3.08
2022-08-27T02:34:01.615Z,2.95
2022-08-27T02:36:28.389Z,2.40
2022-08-27T02:38:55.509Z,3.17
2022-08-27T02:41:22.857Z,3.00
2022-08-27T02:43:49.411Z,3.00
2022-08-27T02:46:16.976Z,4.05
2022-08-27T02:48:44.413Z,2.60
2022-08-27T02:51:10.982Z,3.67
2022-08-27T02:53:38.100Z,2.90
2022-08-27T02:56:06.424Z,2.80
2022-08-27T02:58:33.752Z,3.17
2022-08-27T03:01:04.746Z,3.50
2022-08-27T03:03:31.597Z,4.13
2022-08-27T03:05:59.136Z,3.28
2022-08-27T03:08:27.015Z,3.38
2022-08-27T03:10:56.770Z,3.28
2022-08-27T03:13:25.920Z,3.40
2022-08-27T03:15:53.616Z,3.38
2022-08-27T03:18:21.860Z,3.55
2022-08-27T03:20:51.628Z,4.70
2022-08-27T03:23:22.517Z,4.72
2022-08-27T03:25:52.634Z,4.05
2022-08-27T03:28:25.932Z,4.60
2022-08-27T03:30:58.386Z,4.85
2022-08-27T03:33:26.266Z,4.30
2022-08-27T03:35:53.074Z,4.47
2022-08-27T03:38:20.098Z,4.43
2022-08-27T03:40:47.134Z,4.32
2022-08-27T03:43:15.084Z,3.88
2022-08-27T03:46:00.413Z,4.07
2022-08-27T03:48:29.348Z,4.82
2022-08-27T03:50:55.965Z,3.72
2022-08-27T03:53:22.555Z,3.95
2022-08-27T03:55:49.651Z,3.55
2022-08-27T03:58:16.941Z,3.85
2022-08-27T04:00:43.967Z,3.20
2022-08-27T04:03:13.336Z,3.25
2022-08-27T04:05:40.278Z,3.63
2022-08-27T04:08:07.038Z,4.32
2022-08-27T04:10:34.960Z,3.47
2022-08-27T04:13:01.626Z,3.53
2022-08-27T04:15:28.131Z,3.83
2022-08-27T04:17:54.628Z,3.20
2022-08-27T04:20:36.599Z,4.32
2022-08-27T04:23:04.081Z,3.65
2022-08-27T04:25:31.295Z,3.00
2022-08-27T04:27:58.725Z,3.15
2022-08-27T04:30:25.307Z,4.55
2022-08-27T04:32:51.818Z,2.90
2022-08-27T04:35:18.440Z,4.13
2022-08-27T04:37:45.017Z,3.85
2022-08-27T04:40:11.736Z,4.00
2022-08-27T04:42:38.559Z,3.63
2022-08-27T04:45:05.745Z,3.53
2022-08-27T04:47:33.242Z,3.03
2022-08-27T04:49:59.766Z,2.85
2022-08-27T04:52:26.825Z,2.80
2022-08-27T04:54:53.358Z,3.10
2022-08-27T04:57:20.701Z,3.45
2022-08-27T04:59:47.277Z,2.90
2022-08-27T05:02:14.070Z,3.05
2022-08-27T05:04:41.090Z,3.00
2022-08-27T05:07:09.406Z,2.60
2022-08-27T05:09:36.252Z,2.92
2022-08-27T05:12:03.424Z,2.53
2022-08-27T05:14:30.469Z,2.78
2022-08-27T05:16:59.148Z,2.72
2022-08-27T05:19:26.254Z,2.53
2022-08-27T05:21:53.910Z,2.72
2022-08-27T05:24:21.723Z,2.70
2022-08-27T05:26:49.026Z,3.05
2022-08-27T05:29:16.145Z,3.35
2022-08-27T05:31:42.921Z,2.25
2022-08-27T05:34:15.309Z,3.10
2022-08-27T05:36:49.315Z,2.45
2022-08-27T05:39:17.011Z,2.70
2022-08-27T05:41:43.860Z,2.60
2022-08-27T05:44:37.293Z,3.40
2022-08-27T05:46:57.460Z,2.85
2022-08-27T05:49:23.982Z,2.78
2022-08-27T05:51:50.561Z,2.67
2022-08-27T05:54:19.885Z,2.53
2022-08-27T05:56:49.910Z,2.55
2022-08-27T05:59:35.313Z,2.72
2022-08-27T06:02:04.124Z,2.20
2022-08-27T06:04:30.598Z,2.45
2022-08-27T06:06:57.453Z,2.50
2022-08-27T06:09:26.881Z,3.13
2022-08-27T06:11:54.521Z,2.42
2022-08-27T06:14:21.312Z,2.47
2022-08-27T06:16:48.736Z,2.40
2022-08-27T06:19:15.427Z,3.10
2022-08-27T06:21:42.517Z,3.10
2022-08-27T06:24:12.279Z,2.70
2022-08-27T06:26:40.619Z,2.70
2022-08-27T06:29:08.622Z,2.40
2022-08-27T06:31:35.693Z,3.20
2022-08-27T06:34:07.215Z,3.03
2022-08-27T06:36:37.771Z,3.00
2022-08-27T06:39:05.655Z,2.58
2022-08-27T06:41:33.691Z,3.08
2022-08-27T06:44:00.178Z,3.00
2022-08-27T06:46:29.481Z,2.95
2022-08-27T06:48:58.985Z,3.03
2022-08-27T06:51:29.808Z,3.28
2022-08-27T06:54:00.934Z,3.80
2022-08-27T06:56:28.518Z,4.03
2022-08-27T06:58:57.728Z,4.35
2022-08-27T07:01:30.167Z,3.28
2022-08-27T07:03:59.839Z,3.50
2022-08-27T07:06:29.354Z,3.70
2022-08-27T07:08:57.165Z,3.70
2022-08-27T07:11:24.946Z,2.95
2022-08-27T07:13:52.566Z,2.85
2022-08-27T07:16:23.281Z,2.90
2022-08-27T07:18:52.006Z,3.75
2022-08-27T07:21:22.536Z,4.43
2022-08-27T07:23:51.609Z,3.53
2022-08-27T07:26:19.462Z,3.33
2022-08-27T07:28:46.895Z,3.03
2022-08-27T07:31:17.179Z,3.65
2022-08-27T07:33:50.783Z,3.70
2022-08-27T07:36:20.062Z,3.67
2022-08-27T07:38:56.579Z,3.13
2022-08-27T07:41:31.100Z,3.67
2022-08-27T07:44:20.171Z,3.83
2022-08-27T07:46:49.065Z,4.22
2022-08-27T07:49:19.540Z,3.53
2022-08-27T07:51:46.148Z,3.42
2022-08-27T07:54:12.838Z,3.38
2022-08-27T07:56:39.392Z,4.45
2022-08-27T07:59:06.064Z,4.10
2022-08-27T08:01:32.932Z,3.40
2022-08-27T08:03:59.544Z,2.90
2022-08-27T08:06:26.176Z,3.67
2022-08-27T08:08:52.785Z,4.05
2022-08-27T08:11:20.408Z,3.95
2022-08-27T08:13:47.374Z,4.28
